Yengema Airport

Jump to: basic info | weather | comments

Related pages: nearby airports | nearby navaids | notams | map

Basic information (top)

Codes: WYE GFYE
Location: lon 8.610470, lat -11.045400, elev 1,300 ft / 396 m msl
Status: medium_airport
Scheduled airline service: yes
Links: Wikipedia Mobile

Weather (top)

Current conditions for Lungi International Airport 128nm (236km) W (rec'd 2014/10/20 19:00Z):

GFLL 201900Z 09035KT 2000 TSRA OVC007 FEW025CB 23/23 Q1011 RMK CB-NE

Airport forecast for Lungi International Airport 128nm (236km) W (rec'd 2014/10/20 18:30Z):

TAF TAF GFLL 201600Z 2018/2124 28010KT 9999 TS BKN011 FEW027CB 
      BECMG 2020/2023 30008KT 8000 TSRA BKN010 FEW027CB PROB30 
      TEMPO 2102/2106 24004KT 4000 BR BKN008 
     FM211200 26008KT 9000 -TSRA BKN011 FEW027CB

Latest comments (top)

No comments yet for Yengema Airport

More... (top)

See also NOTAMs and nearby airports and navaids, or visit the Yengema Airport page at the main OurAirports website..